createdAt,value
2022-12-19T00:01:21.651Z,36.95
2022-12-19T00:03:50.307Z,35.55
2022-12-19T00:06:18.045Z,35.50
2022-12-19T00:08:45.762Z,36.03
2022-12-19T00:11:13.849Z,40.22
2022-12-19T00:13:41.331Z,37.47
2022-12-19T00:16:11.751Z,36.83
2022-12-19T00:18:40.420Z,36.60
2022-12-19T00:21:06.975Z,34.00
2022-12-19T00:23:34.687Z,35.13
2022-12-19T00:26:15.140Z,34.55
2022-12-19T00:28:45.306Z,37.47
2022-12-19T00:31:11.807Z,34.67
2022-12-19T00:33:38.747Z,38.78
2022-12-19T00:36:15.031Z,40.05
2022-12-19T00:38:45.297Z,39.15
2022-12-19T00:41:17.001Z,38.15
2022-12-19T00:43:44.212Z,39.78
2022-12-19T00:46:12.981Z,36.95
2022-12-19T00:48:40.716Z,32.78
2022-12-19T00:51:11.794Z,35.38
2022-12-19T00:53:42.161Z,31.77
2022-12-19T00:56:12.395Z,36.08
2022-12-19T00:58:42.161Z,35.85
2022-12-19T01:01:19.671Z,39.00
2022-12-19T01:04:18.656Z,39.55
2022-12-19T01:06:33.675Z,34.75
2022-12-19T01:09:00.942Z,39.65
2022-12-19T01:11:53.878Z,37.13
2022-12-19T01:14:23.072Z,31.83
2022-12-19T01:16:50.572Z,36.15
2022-12-19T01:19:18.271Z,38.35
2022-12-19T01:21:45.374Z,37.47
2022-12-19T01:24:12.674Z,35.88
2022-12-19T01:26:40.187Z,37.53
2022-12-19T01:29:06.587Z,37.47
2022-12-19T01:31:33.523Z,37.22
2022-12-19T01:34:01.885Z,36.08
2022-12-19T01:36:29.612Z,38.40
2022-12-19T01:38:57.645Z,36.67
2022-12-19T01:41:24.397Z,34.13
2022-12-19T01:44:07.630Z,35.92
2022-12-19T01:46:47.591Z,33.38
2022-12-19T01:49:26.133Z,32.05
2022-12-19T01:51:56.505Z,33.80
2022-12-19T01:54:30.754Z,32.60
2022-12-19T01:57:01.019Z,35.70
2022-12-19T01:59:41.593Z,34.50
2022-12-19T02:02:13.191Z,35.25
2022-12-19T02:04:44.438Z,37.03
2022-12-19T02:07:15.811Z,33.08
2022-12-19T02:09:44.825Z,31.98
2022-12-19T02:12:13.135Z,36.08
2022-12-19T02:14:40.511Z,36.17
2022-12-19T02:17:23.398Z,34.85
2022-12-19T02:20:20.276Z,34.53
2022-12-19T02:23:32.235Z,32.95
2022-12-19T02:26:16.331Z,32.65
2022-12-19T02:29:05.537Z,34.83
2022-12-19T02:31:58.642Z,31.52
2022-12-19T02:34:33.505Z,33.08
2022-12-19T02:37:08.798Z,34.28
2022-12-19T02:39:47.634Z,31.42
2022-12-19T02:42:23.373Z,32.30
2022-12-19T02:44:52.723Z,30.38
2022-12-19T02:47:21.072Z,28.85
2022-12-19T02:49:48.639Z,30.90
2022-12-19T02:52:18.847Z,32.65
2022-12-19T02:54:50.337Z,38.15
2022-12-19T02:57:28.224Z,35.75
2022-12-19T03:00:03.991Z,32.72
2022-12-19T03:03:00.716Z,34.00
2022-12-19T03:05:33.798Z,32.75
2022-12-19T03:08:21.925Z,36.17
2022-12-19T03:10:57.700Z,32.40
2022-12-19T03:13:38.032Z,35.05
2022-12-19T03:16:07.813Z,29.95
2022-12-19T03:18:34.691Z,32.28
2022-12-19T03:21:04.042Z,34.55
2022-12-19T03:23:31.266Z,33.80
2022-12-19T03:26:06.791Z,32.22
2022-12-19T03:28:40.959Z,29.77
2022-12-19T03:31:09.765Z,33.00
2022-12-19T03:33:38.360Z,33.72
2022-12-19T03:36:08.842Z,30.63
2022-12-19T03:38:37.411Z,31.73
2022-12-19T03:41:07.064Z,32.33
2022-12-19T03:43:35.307Z,31.13
2022-12-19T03:46:22.406Z,33.67
2022-12-19T03:48:52.237Z,36.05
2022-12-19T03:51:37.823Z,34.28
2022-12-19T03:54:16.379Z,30.92
2022-12-19T03:56:53.032Z,35.40
2022-12-19T03:59:33.217Z,35.45
2022-12-19T04:02:01.479Z,33.17
2022-12-19T04:04:29.530Z,30.40
2022-12-19T04:06:57.565Z,32.22
2022-12-19T04:09:24.581Z,33.42
2022-12-19T04:12:02.143Z,29.95
2022-12-19T04:14:31.984Z,31.00
2022-12-19T04:17:15.813Z,32.75
2022-12-19T04:19:54.903Z,30.30
2022-12-19T04:22:27.006Z,29.48
2022-12-19T04:24:55.845Z,30.17
2022-12-19T04:27:22.912Z,33.03
2022-12-19T04:29:54.235Z,31.10
2022-12-19T04:32:21.842Z,29.00
2022-12-19T04:34:48.210Z,34.58
2022-12-19T04:37:15.015Z,29.58
2022-12-19T04:39:41.354Z,36.28
2022-12-19T04:42:08.109Z,29.65
2022-12-19T04:44:34.441Z,31.02
2022-12-19T04:47:00.843Z,30.27
2022-12-19T04:49:27.923Z,32.17
2022-12-19T04:51:54.477Z,33.33
2022-12-19T04:54:21.637Z,31.70
2022-12-19T04:56:48.244Z,29.80
2022-12-19T04:59:14.619Z,26.90
2022-12-19T05:01:41.080Z,29.77
2022-12-19T05:04:07.520Z,28.05
2022-12-19T05:06:33.942Z,34.72
2022-12-19T05:09:00.307Z,31.77
2022-12-19T05:11:26.885Z,33.25
2022-12-19T05:13:53.357Z,29.33
2022-12-19T05:16:19.803Z,29.27
2022-12-19T05:18:46.550Z,32.13
2022-12-19T05:21:13.407Z,28.73
2022-12-19T05:23:39.932Z,33.83
2022-12-19T05:26:07.099Z,27.55
2022-12-19T05:28:34.033Z,40.75
2022-12-19T05:31:09.660Z,27.73
2022-12-19T05:33:36.490Z,32.33
2022-12-19T05:36:03.033Z,31.63
2022-12-19T05:38:29.782Z,28.38
2022-12-19T05:40:56.362Z,28.00
2022-12-19T05:43:23.769Z,31.58
2022-12-19T05:45:50.306Z,28.30
2022-12-19T05:48:17.053Z,26.35
2022-12-19T05:50:47.944Z,25.80
2022-12-19T05:53:14.285Z,28.35
2022-12-19T05:55:40.944Z,29.67
2022-12-19T05:58:07.325Z,29.55
2022-12-19T06:00:33.719Z,26.42
2022-12-19T06:03:00.240Z,28.40
2022-12-19T06:05:27.000Z,30.15
2022-12-19T06:07:53.999Z,29.17
2022-12-19T06:10:20.370Z,30.40
2022-12-19T06:12:46.717Z,27.95
2022-12-19T06:15:13.546Z,26.30
2022-12-19T06:17:39.895Z,29.52
2022-12-19T06:20:06.831Z,26.40
2022-12-19T06:22:34.440Z,27.50
2022-12-19T06:25:00.972Z,27.83
2022-12-19T06:27:27.461Z,27.42
2022-12-19T06:29:53.804Z,31.80
2022-12-19T06:32:20.325Z,28.67
2022-12-19T06:35:03.580Z,28.35
2022-12-19T06:37:30.412Z,31.27
2022-12-19T06:39:56.763Z,33.22
2022-12-19T06:42:23.151Z,27.50
2022-12-19T06:44:55.586Z,29.88
2022-12-19T06:47:24.236Z,28.38
2022-12-19T06:49:50.626Z,31.50
2022-12-19T06:52:17.712Z,28.83
2022-12-19T06:54:44.142Z,27.35
2022-12-19T06:57:10.581Z,29.52
2022-12-19T06:59:36.996Z,26.52
2022-12-19T07:02:21.700Z,28.55
2022-12-19T07:04:56.507Z,29.58
2022-12-19T07:07:22.919Z,25.85
2022-12-19T07:09:49.312Z,27.10
2022-12-19T07:12:15.797Z,27.13
2022-12-19T07:14:42.236Z,28.85
2022-12-19T07:17:08.619Z,28.23
2022-12-19T07:19:35.247Z,26.23
2022-12-19T07:22:03.271Z,29.38
2022-12-19T07:24:30.192Z,29.48
2022-12-19T07:26:57.081Z,27.83
2022-12-19T07:29:23.528Z,34.33
2022-12-19T07:31:49.905Z,28.42
2022-12-19T07:34:16.286Z,28.58
2022-12-19T07:36:42.716Z,26.85
2022-12-19T07:39:09.120Z,25.63
2022-12-19T07:41:39.049Z,28.55
2022-12-19T07:44:06.810Z,30.60
2022-12-19T07:46:33.181Z,32.90
2022-12-19T07:48:59.892Z,28.98
2022-12-19T07:51:27.003Z,31.42
2022-12-19T07:53:53.435Z,28.05
2022-12-19T07:56:19.826Z,27.50
2022-12-19T07:58:46.274Z,27.25
2022-12-19T08:01:12.689Z,29.95
2022-12-19T08:03:39.105Z,31.90
2022-12-19T08:06:06.743Z,28.77
2022-12-19T08:08:34.213Z,31.88
2022-12-19T08:11:13.254Z,28.95
2022-12-19T08:13:46.374Z,29.98
2022-12-19T08:16:13.589Z,32.63
2022-12-19T08:18:40.447Z,30.13
2022-12-19T08:21:08.283Z,30.42
2022-12-19T08:23:34.992Z,33.17
2022-12-19T08:26:03.809Z,32.58
2022-12-19T08:28:32.107Z,32.65
2022-12-19T08:31:05.376Z,33.17
2022-12-19T08:33:31.841Z,33.63
2022-12-19T08:35:58.270Z,32.80
2022-12-19T08:38:24.638Z,33.60
2022-12-19T08:40:54.510Z,30.33
2022-12-19T08:43:21.346Z,34.92
2022-12-19T08:45:50.041Z,30.05
2022-12-19T08:48:17.243Z,34.10
2022-12-19T08:50:56.860Z,39.65
2022-12-19T08:53:26.675Z,32.00
2022-12-19T08:56:07.724Z,37.97
2022-12-19T08:58:34.800Z,34.10
2022-12-19T09:01:06.258Z,39.70
2022-12-19T09:03:43.478Z,36.88
2022-12-19T09:06:19.812Z,40.50
2022-12-19T09:08:46.778Z,37.00
2022-12-19T09:11:18.989Z,41.75
2022-12-19T09:13:46.823Z,36.53
2022-12-19T09:16:23.131Z,34.85
2022-12-19T09:18:51.397Z,42.97
2022-12-19T09:21:19.674Z,39.08
2022-12-19T09:23:51.393Z,42.95
2022-12-19T09:26:18.489Z,41.33
2022-12-19T09:28:46.175Z,45.30
2022-12-19T09:31:16.161Z,47.45
2022-12-19T09:33:43.812Z,48.25
2022-12-19T09:36:15.599Z,48.85
2022-12-19T09:38:42.819Z,47.72
2022-12-19T09:41:33.758Z,47.53
2022-12-19T09:44:28.013Z,42.92
2022-12-19T09:47:00.006Z,42.65
2022-12-19T09:49:41.733Z,43.38
2022-12-19T09:52:20.728Z,42.63
2022-12-19T09:54:52.954Z,50.15
2022-12-19T09:57:31.324Z,47.42
2022-12-19T10:00:04.987Z,43.55
2022-12-19T10:02:49.984Z,51.83
2022-12-19T10:07:00.480Z,55.58
2022-12-19T10:08:46.743Z,52.28
2022-12-19T10:12:45.273Z,51.03
2022-12-19T10:15:06.288Z,65.18
2022-12-19T10:17:54.481Z,62.70
2022-12-19T10:20:23.628Z,69.40
2022-12-19T10:23:12.152Z,67.82
2022-12-19T10:25:59.996Z,66.05
2022-12-19T10:28:51.138Z,77.10
2022-12-19T10:31:23.241Z,77.38
2022-12-19T10:34:16.201Z,69.30
2022-12-19T10:39:55.272Z,78.68
2022-12-19T10:42:32.657Z,68.10
2022-12-19T10:45:02.577Z,67.35
2022-12-19T10:47:31.081Z,69.82
2022-12-19T10:49:59.524Z,74.60
2022-12-19T10:52:48.621Z,61.75
2022-12-19T10:55:38.167Z,93.95
2022-12-19T10:58:24.495Z,76.38
2022-12-19T11:01:02.493Z,65.25
2022-12-19T11:03:29.383Z,71.70
2022-12-19T11:05:58.715Z,69.15
2022-12-19T11:08:44.907Z,72.18
2022-12-19T11:13:34.849Z,80.78
2022-12-19T11:19:27.903Z,69.60
2022-12-19T11:20:49.315Z,72.47
2022-12-19T11:29:31.804Z,91.95
2022-12-19T11:29:34.558Z,75.85
2022-12-19T11:29:38.303Z,71.13
2022-12-19T11:29:39.997Z,80.22
2022-12-19T11:34:06.467Z,71.78
2022-12-19T11:36:36.410Z,64.97
2022-12-19T11:39:03.239Z,66.50
2022-12-19T11:41:36.896Z,61.17
2022-12-19T11:44:13.708Z,65.30
2022-12-19T11:47:02.206Z,66.53
2022-12-19T11:49:40.848Z,54.92
2022-12-19T11:53:02.799Z,62.35
2022-12-19T11:55:51.504Z,58.10
2022-12-19T11:58:18.238Z,74.65
2022-12-19T12:01:12.368Z,65.63
2022-12-19T12:03:42.097Z,60.03
2022-12-19T12:06:26.660Z,61.50
2022-12-19T12:14:48.958Z,73.47
2022-12-19T12:18:41.052Z,76.38
2022-12-19T12:24:37.836Z,73.00
2022-12-19T12:31:17.476Z,71.82
2022-12-19T12:31:18.057Z,67.78
2022-12-19T12:31:50.266Z,81.40
2022-12-19T12:31:50.789Z,79.05
2022-12-19T12:35:41.442Z,64.10
2022-12-19T12:35:46.225Z,71.15
2022-12-19T12:38:14.569Z,81.13
2022-12-19T12:40:26.213Z,93.38
2022-12-19T12:43:17.582Z,84.68
2022-12-19T12:45:45.301Z,85.65
2022-12-19T12:48:34.171Z,79.68
2022-12-19T12:51:02.170Z,93.85
2022-12-19T12:53:34.004Z,87.93
2022-12-19T12:56:03.181Z,92.15
2022-12-19T12:58:54.280Z,86.50
2022-12-19T13:01:34.739Z,105.65
2022-12-19T13:04:13.080Z,90.90
2022-12-19T13:06:51.708Z,86.97
2022-12-19T13:09:17.995Z,92.95
2022-12-19T13:12:09.140Z,86.90
2022-12-19T13:14:35.617Z,90.07
2022-12-19T13:17:04.401Z,82.05
2022-12-19T13:19:33.873Z,92.68
2022-12-19T13:22:09.293Z,84.93
2022-12-19T13:24:54.905Z,114.60
2022-12-19T13:27:21.193Z,100.20
2022-12-19T13:30:12.383Z,98.25
2022-12-19T13:32:38.679Z,84.90
2022-12-19T13:37:09.109Z,91.55
2022-12-19T13:39:55.161Z,67.68
2022-12-19T13:41:45.396Z,81.93
2022-12-19T13:44:12.149Z,77.55
2022-12-19T13:46:43.044Z,80.97
2022-12-19T13:49:23.951Z,85.30
2022-12-19T13:51:56.984Z,93.30
2022-12-19T13:54:32.481Z,81.50
2022-12-19T13:57:00.915Z,78.20
2022-12-19T13:59:38.486Z,84.22
2022-12-19T14:02:20.789Z,93.45
2022-12-19T14:04:47.417Z,88.75
2022-12-19T14:07:36.382Z,95.28
2022-12-19T14:11:35.140Z,86.75
2022-12-19T14:13:42.414Z,91.90
2022-12-19T14:16:23.643Z,75.82
2022-12-19T14:19:25.536Z,82.45
2022-12-19T14:22:08.985Z,66.85
2022-12-19T14:24:39.392Z,79.50
2022-12-19T14:28:19.052Z,68.57
2022-12-19T14:30:28.909Z,100.82
2022-12-19T14:33:46.159Z,100.05
2022-12-19T14:36:10.560Z,65.63
2022-12-19T14:39:26.925Z,72.60
2022-12-19T14:41:46.874Z,66.78
2022-12-19T14:52:51.556Z,65.43
2022-12-19T14:54:18.275Z,79.70
2022-12-19T14:54:28.465Z,82.07
2022-12-19T14:54:33.737Z,77.07
2022-12-19T14:56:13.690Z,64.57
2022-12-19T14:58:54.884Z,97.88
2022-12-19T15:01:26.163Z,87.30
2022-12-19T15:04:50.973Z,81.85
2022-12-19T15:07:08.389Z,78.13
2022-12-19T15:11:04.725Z,63.80
2022-12-19T15:14:53.152Z,87.50
2022-12-19T15:16:07.140Z,69.65
2022-12-19T15:18:33.732Z,59.17
2022-12-19T15:21:03.419Z,64.70
2022-12-19T15:23:30.552Z,63.22
2022-12-19T15:26:03.829Z,53.90
2022-12-19T15:28:48.054Z,63.60
2022-12-19T15:31:43.104Z,74.25
2022-12-19T15:34:44.379Z,81.18
2022-12-19T15:37:16.855Z,70.35
2022-12-19T15:39:44.675Z,79.60
2022-12-19T15:42:25.067Z,84.05
2022-12-19T15:44:53.719Z,72.68
2022-12-19T15:47:35.248Z,70.35
2022-12-19T15:50:14.492Z,63.10
2022-12-19T15:52:40.896Z,63.60
2022-12-19T15:55:11.833Z,74.35
2022-12-19T15:57:41.966Z,71.35
2022-12-19T16:00:18.375Z,66.78
2022-12-19T16:05:32.028Z,70.05
2022-12-19T16:07:58.916Z,79.60
2022-12-19T16:10:26.337Z,76.90
2022-12-19T16:12:57.751Z,73.25
2022-12-19T16:15:29.910Z,81.68
2022-12-19T16:17:57.881Z,76.18
2022-12-19T16:20:27.369Z,75.22
2022-12-19T16:22:55.171Z,81.50
2022-12-19T16:25:24.688Z,74.40
2022-12-19T16:27:57.282Z,73.60
2022-12-19T16:30:32.136Z,74.82
2022-12-19T16:32:58.842Z,83.35
2022-12-19T16:35:55.011Z,82.40
2022-12-19T16:38:14.374Z,81.25
2022-12-19T16:40:41.259Z,83.82
2022-12-19T16:43:15.788Z,82.43
2022-12-19T16:45:43.345Z,78.55
2022-12-19T16:48:18.320Z,67.20
2022-12-19T16:50:44.796Z,75.93
2022-12-19T16:53:11.269Z,71.20
2022-12-19T16:55:37.682Z,72.57
2022-12-19T16:58:04.165Z,68.38
2022-12-19T17:00:30.939Z,63.95
2022-12-19T17:03:15.385Z,66.03
2022-12-19T17:05:42.847Z,65.35
2022-12-19T17:08:12.796Z,59.67
2022-12-19T17:10:44.211Z,66.43
2022-12-19T17:13:12.890Z,57.15
2022-12-19T17:15:39.487Z,63.25
2022-12-19T17:18:27.917Z,69.35
2022-12-19T17:20:54.371Z,63.05
2022-12-19T17:23:23.563Z,60.65
2022-12-19T17:25:50.613Z,51.72
2022-12-19T17:28:17.668Z,59.67
2022-12-19T17:30:50.167Z,48.08
2022-12-19T17:33:18.432Z,60.67
2022-12-19T17:35:45.401Z,50.38
2022-12-19T17:38:17.572Z,43.67
2022-12-19T17:40:44.782Z,51.65
2022-12-19T17:43:14.241Z,56.35
2022-12-19T17:45:41.714Z,45.25
2022-12-19T17:48:21.257Z,50.63
2022-12-19T17:50:48.136Z,43.08
2022-12-19T17:53:15.271Z,48.95
2022-12-19T17:55:41.762Z,50.63
2022-12-19T17:58:10.567Z,42.85
2022-12-19T18:00:38.835Z,35.53
2022-12-19T18:03:17.411Z,38.00
2022-12-19T18:05:44.451Z,41.38
2022-12-19T18:08:32.317Z,42.78
2022-12-19T18:11:01.218Z,54.05
2022-12-19T18:13:29.112Z,42.40
2022-12-19T18:16:01.055Z,38.55
2022-12-19T18:18:31.254Z,36.72
2022-12-19T18:20:59.854Z,35.88
2022-12-19T18:23:26.628Z,35.83
2022-12-19T18:26:00.946Z,50.25
2022-12-19T18:28:28.788Z,42.30
2022-12-19T18:31:01.101Z,47.65
2022-12-19T18:33:27.959Z,36.55
2022-12-19T18:35:54.550Z,43.10
2022-12-19T18:38:23.088Z,37.20
2022-12-19T18:40:52.043Z,34.10
2022-12-19T18:43:18.877Z,39.33
2022-12-19T18:45:51.444Z,37.67
2022-12-19T18:48:27.277Z,34.10
2022-12-19T18:50:55.201Z,29.40
2022-12-19T18:53:27.400Z,30.75
2022-12-19T18:55:56.283Z,32.80
2022-12-19T18:58:22.818Z,31.95
2022-12-19T19:00:53.002Z,35.60
2022-12-19T19:03:27.018Z,34.85
2022-12-19T19:05:54.989Z,36.15
2022-12-19T19:08:30.567Z,33.88
2022-12-19T19:11:23.603Z,34.30
2022-12-19T19:13:50.753Z,27.75
2022-12-19T19:16:21.097Z,31.00
2022-12-19T19:18:52.473Z,31.48
2022-12-19T19:21:21.126Z,28.58
2022-12-19T19:23:51.385Z,27.23
2022-12-19T19:26:17.833Z,28.63
2022-12-19T19:28:50.335Z,29.38
2022-12-19T19:31:21.522Z,26.17
2022-12-19T19:33:52.926Z,29.70
2022-12-19T19:36:24.551Z,24.63
2022-12-19T19:38:54.664Z,26.58
2022-12-19T19:41:24.175Z,25.92
2022-12-19T19:43:50.932Z,25.42
2022-12-19T19:46:17.396Z,22.95
2022-12-19T19:48:43.937Z,25.88
2022-12-19T19:51:11.904Z,24.80
2022-12-19T19:53:38.427Z,24.50
2022-12-19T19:56:05.219Z,25.55
2022-12-19T19:58:32.135Z,26.33
2022-12-19T20:00:58.850Z,23.38
2022-12-19T20:03:25.971Z,22.33
2022-12-19T20:06:00.949Z,25.35
2022-12-19T20:08:28.363Z,22.75
2022-12-19T20:10:57.935Z,21.63
2022-12-19T20:13:24.924Z,24.05
2022-12-19T20:15:51.886Z,23.80
2022-12-19T20:18:18.445Z,22.73
2022-12-19T20:20:47.692Z,20.08
2022-12-19T20:23:14.216Z,22.17
2022-12-19T20:25:42.193Z,20.27
2022-12-19T20:28:08.620Z,18.85
2022-12-19T20:30:36.795Z,18.85
2022-12-19T20:33:03.405Z,19.05
2022-12-19T20:35:29.814Z,18.83
2022-12-19T20:37:56.253Z,16.48
2022-12-19T20:40:22.628Z,18.63
2022-12-19T20:42:49.760Z,17.35
2022-12-19T20:45:16.219Z,19.13
2022-12-19T20:47:42.607Z,20.73
2022-12-19T20:50:09.172Z,19.90
2022-12-19T20:52:35.692Z,19.92
2022-12-19T20:55:02.036Z,17.23
2022-12-19T20:57:30.373Z,17.52
2022-12-19T20:59:56.740Z,20.95
2022-12-19T21:02:23.334Z,18.30
2022-12-19T21:04:49.942Z,14.70
2022-12-19T21:07:16.444Z,19.90
2022-12-19T21:09:44.936Z,17.40
2022-12-19T21:12:12.166Z,15.00
2022-12-19T21:14:38.645Z,15.68
2022-12-19T21:17:05.029Z,16.05
2022-12-19T21:19:31.373Z,17.95
2022-12-19T21:21:57.817Z,17.00
2022-12-19T21:24:24.209Z,16.83
2022-12-19T21:26:57.665Z,18.13
2022-12-19T21:29:24.417Z,20.35
2022-12-19T21:31:51.475Z,17.67
2022-12-19T21:34:18.193Z,15.43
2022-12-19T21:36:44.534Z,19.02
2022-12-19T21:39:11.740Z,15.50
2022-12-19T21:41:38.094Z,16.10
2022-12-19T21:44:04.662Z,16.15
2022-12-19T21:46:33.266Z,15.35
2022-12-19T21:49:00.547Z,15.43
2022-12-19T21:51:29.061Z,18.42
2022-12-19T21:54:00.697Z,13.05
2022-12-19T21:56:30.015Z,17.10
2022-12-19T21:59:00.756Z,16.85
2022-12-19T22:01:28.702Z,17.42
2022-12-19T22:04:06.187Z,13.07
2022-12-19T22:06:34.779Z,16.70
2022-12-19T22:09:01.579Z,18.25
2022-12-19T22:11:30.011Z,16.13
2022-12-19T22:13:58.728Z,15.25
2022-12-19T22:16:25.210Z,16.40
2022-12-19T22:18:52.886Z,16.02
2022-12-19T22:21:20.151Z,19.33
2022-12-19T22:23:46.616Z,21.42
2022-12-19T22:26:22.051Z,16.15
2022-12-19T22:28:51.271Z,20.88
2022-12-19T22:31:38.300Z,17.70
2022-12-19T22:34:07.700Z,18.65
2022-12-19T22:36:35.616Z,16.27
2022-12-19T22:39:04.501Z,17.17
2022-12-19T22:41:32.472Z,17.10
2022-12-19T22:43:58.901Z,16.55
2022-12-19T22:46:31.808Z,16.33
2022-12-19T22:49:00.480Z,17.48
2022-12-19T22:51:28.192Z,17.55
2022-12-19T22:53:55.048Z,14.30
2022-12-19T22:56:24.805Z,14.90
2022-12-19T22:58:53.211Z,15.00
2022-12-19T23:01:26.006Z,15.82
2022-12-19T23:03:54.364Z,15.65
2022-12-19T23:06:21.798Z,18.67
2022-12-19T23:08:48.770Z,16.95
2022-12-19T23:11:18.750Z,17.20
2022-12-19T23:13:46.811Z,17.15
2022-12-19T23:16:13.660Z,17.73
2022-12-19T23:18:40.793Z,17.15
2022-12-19T23:21:13.377Z,17.83
2022-12-19T23:23:43.649Z,16.77
2022-12-19T23:26:15.830Z,16.15
2022-12-19T23:28:44.229Z,17.10
2022-12-19T23:31:14.765Z,13.68
2022-12-19T23:33:41.325Z,21.45
2022-12-19T23:36:08.210Z,14.13
2022-12-19T23:38:34.640Z,17.27
2022-12-19T23:41:06.203Z,13.32
2022-12-19T23:43:34.038Z,15.27
2022-12-19T23:46:08.163Z,15.00
2022-12-19T23:48:34.785Z,14.40
2022-12-19T23:51:04.519Z,16.70
2022-12-19T23:53:32.395Z,13.40
2022-12-19T23:55:59.115Z,14.93
2022-12-19T23:58:25.629Z,14.20
